Time;durP1;ratioP1;P1;durP2;ratioP2;P2;SDS_P1;SDS_P2;PMS_P1;PMS_P2;Temp;Humidity;BMP_temperature;BMP_pressure;BME280_temperature;BME280_humidity;BME280_pressure;Samples;Min_cycle;Max_cycle;Signal;HPM_P1;HPM_P2
2022/01/03 00:00:11;;;;;;;1.30;0.90;;;13.20;99.90;;;13.63;71.54;100563.50;4952783;29;20707;-67
2022/01/03 00:02:40;;;;;;;1.53;1.20;;;13.20;99.90;;;13.63;71.64;100571.38;4951270;29;20635;-66
2022/01/03 00:05:08;;;;;;;6.53;0.90;;;13.20;99.90;;;13.61;71.79;100581.97;4952265;29;20608;-67
2022/01/03 00:07:39;;;;;;;0.93;0.43;;;13.20;99.90;;;13.65;72.43;100574.69;4950427;29;20638;-66
2022/01/03 00:10:08;;;;;;;2.83;0.93;;;13.20;99.90;;;13.58;72.72;100586.66;4953873;28;21207;-67
2022/01/03 00:12:36;;;;;;;3.53;1.20;;;13.20;99.90;;;13.55;72.62;100595.59;4955971;29;20627;-68
2022/01/03 00:15:07;;;;;;;3.33;1.07;;;13.10;99.90;;;13.57;72.62;100598.91;4942359;29;20648;-67
2022/01/03 00:17:34;;;;;;;2.03;1.07;;;13.10;99.90;;;13.56;72.20;100576.31;4949403;29;20674;-67
2022/01/03 00:20:01;;;;;;;2.10;1.07;;;13.20;99.90;;;13.62;71.85;100580.19;4955178;29;20624;-67
2022/01/03 00:22:33;;;;;;;2.57;1.20;;;13.20;99.90;;;13.59;72.31;100575.19;4942452;28;20731;-67
2022/01/03 00:25:10;;;;;;;0.77;0.77;;;13.20;99.90;;;13.53;72.11;100580.97;4969393;28;20631;-66
2022/01/03 00:28:02;;;;;;;2.80;1.00;;;13.20;99.90;;;13.56;71.51;100583.34;4945403;28;20647;-66
2022/01/03 00:30:35;;;;;;;3.13;0.63;;;13.20;99.90;;;13.60;71.74;100603.09;4954509;28;20659;-66
2022/01/03 00:33:04;;;;;;;2.50;1.20;;;13.20;99.90;;;13.71;71.46;100695.63;4953982;29;20636;-66
2022/01/03 00:35:38;;;;;;;0.70;0.60;;;13.30;99.90;;;13.38;73.54;100695.78;4953859;29;20640;-66
2022/01/03 00:38:10;;;;;;;1.47;0.30;;;13.00;99.90;;;12.58;76.82;100691.00;4943453;29;20677;-66
2022/01/03 00:40:39;;;;;;;0.43;0.43;;;12.20;99.90;;;12.13;79.17;100680.59;4955742;28;20654;-67
2022/01/03 00:43:06;;;;;;;0.40;0.40;;;11.70;99.90;;;11.86;80.08;100693.13;4948148;29;20639;-67
2022/01/03 00:45:33;;;;;;;0.57;0.30;;;11.30;99.90;;;11.69;82.86;100696.22;4954042;29;21070;-67
2022/01/03 00:48:06;;;;;;;0.40;0.40;;;11.20;99.90;;;11.50;84.04;100701.09;4954374;29;20635;-67
2022/01/03 00:50:33;;;;;;;0.50;0.30;;;11.10;99.90;;;11.14;87.45;100712.50;4952740;28;20663;-67
2022/01/03 00:53:00;;;;;;;0.67;0.67;;;10.70;99.90;;;11.13;88.17;100708.22;4986169;23;21260;-66
2022/01/03 00:55:27;;;;;;;1.63;0.63;;;10.70;99.90;;;10.83;90.91;100705.22;4937457;29;20614;-65
2022/01/03 00:58:00;;;;;;;0.73;0.30;;;10.50;99.90;;;10.93;89.20;100696.63;4962283;28;20663;-66
2022/01/03 01:00:31;;;;;;;2.13;0.30;;;10.50;99.90;;;10.93;90.78;100711.44;4984106;28;20642;-66
2022/01/03 01:03:19;;;;;;;3.37;0.60;;;10.50;99.90;;;10.90;90.97;100707.25;4960095;28;20670;-68
2022/01/03 01:05:49;;;;;;;3.50;0.83;;;10.50;99.90;;;10.97;90.84;100706.84;4956036;28;20610;-66
2022/01/03 01:08:23;;;;;;;0.57;0.57;;;10.50;99.90;;;10.90;91.26;100717.72;4956898;28;20681;-67
2022/01/03 01:10:51;;;;;;;0.77;0.30;;;10.50;99.90;;;10.76;91.91;100723.09;4954849;29;20621;-66
2022/01/03 01:13:22;;;;;;;0.30;0.30;;;10.40;99.90;;;10.81;91.95;100722.78;4950057;28;20665;-67
2022/01/03 01:15:49;;;;;;;0.60;0.50;;;10.40;99.90;;;10.73;92.61;100731.13;4955678;28;20959;-68
2022/01/03 01:18:16;;;;;;;1.30;0.60;;;10.40;99.90;;;10.74;93.43;100727.59;4971580;28;20761;-67
2022/01/03 01:20:43;;;;;;;0.30;0.30;;;10.30;99.90;;;10.72;93.22;100729.47;4972279;28;20629;-66
2022/01/03 01:23:12;;;;;;;0.73;0.50;;;10.30;99.90;;;10.73;93.31;100712.84;4959309;28;20714;-67
2022/01/03 01:28:14;;;;;;;0.50;0.30;;;10.30;99.90;;;10.61;93.22;100685.03;4971778;28;20634;-67
2022/01/03 01:30:42;;;;;;;0.77;0.37;;;10.20;99.90;;;10.62;90.23;100694.53;4966413;28;20735;-67
2022/01/03 01:33:14;;;;;;;2.63;0.40;;;10.30;99.90;;;10.68;89.31;100706.31;4935261;29;20662;-66
2022/01/03 01:35:47;;;;;;;0.40;0.40;;;10.30;99.90;;;10.63;89.39;100698.81;4936478;29;20626;-66
2022/01/03 01:38:20;;;;;;;0.43;0.30;;;10.30;99.90;;;10.68;88.42;100701.94;4954275;28;20671;-68
2022/01/03 01:40:54;;;;;;;0.40;0.40;;;10.30;99.90;;;10.61;88.50;100711.13;4956656;28;20615;-67
2022/01/03 01:43:45;;;;;;;0.67;0.40;;;10.20;99.90;;;10.57;92.01;100714.91;4960054;28;20659;-69
2022/01/03 01:46:21;;;;;;;1.83;0.60;;;10.20;99.90;;;10.62;90.28;100712.81;4954572;29;20730;-66
2022/01/03 01:48:49;;;;;;;0.30;0.30;;;10.20;99.90;;;10.63;90.61;100700.56;4954497;28;20642;-67
2022/01/03 01:51:21;;;;;;;0.60;0.30;;;10.20;99.90;;;10.62;89.42;100696.31;4956180;28;20719;-67
2022/01/03 01:53:55;;;;;;;0.40;0.40;;;10.20;99.90;;;10.58;91.03;100705.31;4941379;29;20640;-67
2022/01/03 01:56:38;;;;;;;0.60;0.50;;;10.20;99.90;;;10.58;90.76;100708.75;4952572;28;20636;-66
2022/01/03 01:59:34;;;;;;;0.40;0.40;;;10.30;99.90;;;10.57;91.20;100709.69;4953049;28;20644;-69
2022/01/03 02:02:08;;;;;;;0.30;0.30;;;10.30;99.90;;;10.51;92.92;100714.50;4954948;28;20693;-68
2022/01/03 02:04:41;;;;;;;1.00;0.83;;;10.10;99.90;;;10.49;91.68;100712.00;4954787;28;20624;-69
2022/01/03 02:07:30;;;;;;;0.40;0.40;;;10.20;99.90;;;10.42;92.98;100708.16;4961345;28;21102;-66
2022/01/03 02:10:02;;;;;;;1.73;0.60;;;10.10;99.90;;;10.36;94.62;100710.34;4973733;28;20651;-69
2022/01/03 02:12:35;;;;;;;1.73;0.57;;;10.00;99.90;;;10.38;94.19;100701.47;4990512;28;20648;-66
2022/01/03 02:15:04;;;;;;;0.50;0.50;;;10.00;99.90;;;10.39;94.58;100708.34;4957485;28;21221;-67
2022/01/03 02:17:31;;;;;;;0.30;0.30;;;10.10;99.90;;;10.32;95.62;100704.53;4955351;28;20765;-66
2022/01/03 02:20:12;;;;;;;0.60;0.47;;;10.00;99.90;;;10.39;94.96;100707.53;4957991;28;20639;-67
2022/01/03 02:22:41;;;;;;;0.90;0.67;;;10.10;99.90;;;10.37;94.73;100719.84;4972276;28;20661;-66
2022/01/03 02:25:11;;;;;;;1.13;0.50;;;10.10;99.90;;;10.36;94.96;100711.19;4959189;28;21010;-67
2022/01/03 02:27:39;;;;;;;3.53;0.60;;;10.00;99.90;;;10.37;95.35;100725.88;4951789;29;20616;-66
2022/01/03 02:30:12;;;;;;;0.40;0.40;;;10.10;99.90;;;10.43;94.40;100730.69;4952867;28;20636;-69
2022/01/03 02:32:40;;;;;;;0.60;0.60;;;10.10;99.90;;;10.41;95.23;100727.38;4952242;28;20644;-67
2022/01/03 02:35:08;;;;;;;2.67;0.60;;;10.10;99.90;;;10.44;95.89;100726.28;4950539;29;20632;-67
2022/01/03 02:37:35;;;;;;;0.40;0.40;;;10.10;99.90;;;10.52;94.85;100722.22;4953172;29;21220;-67
2022/01/03 02:40:10;;;;;;;4.20;0.67;;;10.20;99.90;;;10.54;94.62;100719.50;4952662;28;20639;-66
2022/01/03 02:42:39;;;;;;;1.83;0.70;;;10.20;99.90;;;10.57;94.91;100719.28;4973333;28;20640;-67
2022/01/03 02:45:16;;;;;;;0.43;0.43;;;10.20;99.90;;;10.52;94.61;100696.13;4959882;28;20636;-66
2022/01/03 02:47:46;;;;;;;0.30;0.30;;;10.20;99.90;;;10.57;93.84;100696.63;4964276;28;20642;-67
2022/01/03 02:50:16;;;;;;;0.20;0.20;;;10.20;99.90;;;10.54;94.23;100706.47;4948175;29;20643;-68
2022/01/03 02:52:43;;;;;;;0.30;0.30;;;10.20;99.90;;;10.51;94.41;100707.50;4960877;28;20666;-67
2022/01/03 02:55:14;;;;;;;0.20;0.20;;;10.10;99.90;;;10.52;92.70;100703.94;4970218;28;20649;-67
2022/01/03 02:57:50;;;;;;;0.70;0.40;;;10.20;99.90;;;10.49;93.40;100711.16;4962184;28;20664;-66
2022/01/03 03:00:26;;;;;;;0.43;0.43;;;10.20;99.90;;;10.53;92.91;100710.00;4964475;28;20630;-69
2022/01/03 03:02:53;;;;;;;1.67;0.40;;;10.20;99.90;;;10.52;93.63;100718.78;4967183;28;20655;-66
2022/01/03 03:05:21;;;;;;;3.40;0.60;;;10.20;99.90;;;10.48;94.00;100707.72;4952286;29;21123;-67
2022/01/03 03:07:49;;;;;;;1.23;0.60;;;10.20;99.90;;;10.53;93.09;100704.78;4954065;28;20738;-70
2022/01/03 03:10:20;;;;;;;0.60;0.43;;;10.20;99.90;;;10.56;94.19;100705.38;4953037;28;20637;-69
2022/01/03 03:12:47;;;;;;;1.33;0.50;;;10.20;99.90;;;10.52;94.87;100703.13;4980716;28;20674;-69
2022/01/03 03:15:16;;;;;;;0.30;0.30;;;10.20;99.90;;;10.51;94.28;100706.66;4972126;28;20643;-67
2022/01/03 03:17:44;;;;;;;4.93;0.70;;;10.20;99.90;;;10.52;94.30;100718.78;4954950;28;20663;-67
2022/01/03 03:20:18;;;;;;;0.50;0.50;;;10.10;99.90;;;10.48;94.59;100727.75;4938390;28;20643;-68
2022/01/03 03:22:49;;;;;;;0.40;0.40;;;10.10;99.90;;;10.49;94.49;100719.00;4953935;28;20643;-66
2022/01/03 03:25:33;;;;;;;0.60;0.60;;;10.10;99.90;;;10.45;94.28;100714.94;4956365;28;21009;-66
2022/01/03 03:28:11;;;;;;;0.90;0.40;;;10.00;99.90;;;10.41;94.98;100718.69;4951288;29;20850;-67
2022/01/03 03:30:44;;;;;;;1.53;0.30;;;10.00;99.90;;;10.33;95.24;100711.38;4951711;28;20631;-68
2022/01/03 03:33:15;;;;;;;2.07;0.50;;;9.90;99.90;;;10.30;95.12;100718.59;4976822;28;21105;-69
2022/01/03 03:35:44;;;;;;;4.00;0.40;;;9.90;99.90;;;10.24;95.73;100714.66;4972986;28;20618;-66
2022/01/03 03:38:12;;;;;;;0.50;0.50;;;9.90;99.90;;;10.25;96.25;100708.50;4934742;29;20679;-67
2022/01/03 03:40:43;;;;;;;0.73;0.50;;;9.90;99.90;;;10.26;95.84;100709.31;4950501;28;20599;-67
2022/01/03 03:43:10;;;;;;;0.70;0.60;;;9.90;99.90;;;10.20;96.14;100699.31;4952666;28;20632;-68
2022/01/03 03:45:37;;;;;;;2.17;0.80;;;9.80;99.90;;;10.20;96.88;100707.16;4964323;28;20615;-68
2022/01/03 03:48:05;;;;;;;1.63;0.90;;;9.80;99.90;;;10.19;97.29;100708.06;4974107;28;20660;-67
2022/01/03 03:50:33;;;;;;;2.73;0.60;;;9.80;99.90;;;10.18;97.96;100706.41;4975488;28;20734;-67
2022/01/03 03:53:00;;;;;;;0.50;0.50;;;9.80;99.90;;;10.14;97.62;100700.56;4973362;28;20651;-66
2022/01/03 03:55:28;;;;;;;1.60;0.57;;;9.80;99.90;;;10.10;97.91;100705.16;4974340;28;20646;-67
2022/01/03 03:57:55;;;;;;;1.70;0.43;;;9.70;99.90;;;10.04;97.88;100704.72;4966342;28;20721;-67
2022/01/03 04:00:21;;;;;;;0.93;0.70;;;9.60;99.90;;;9.99;98.07;100707.63;4978756;28;20640;-68
2022/01/03 04:02:48;;;;;;;0.63;0.63;;;9.60;99.90;;;9.95;98.58;100708.78;4954516;28;21235;-67
2022/01/03 04:05:16;;;;;;;2.03;0.70;;;9.60;99.90;;;9.97;98.13;100708.66;4955188;28;21278;-69
2022/01/03 04:07:43;;;;;;;2.63;0.83;;;9.60;99.90;;;10.00;97.43;100701.50;4956617;29;20615;-67
2022/01/03 04:10:13;;;;;;;0.50;0.50;;;9.70;99.90;;;10.03;97.07;100709.09;4955325;28;20674;-66
2022/01/03 04:12:40;;;;;;;0.93;0.67;;;9.70;99.90;;;10.06;97.74;100682.81;4978829;28;20659;-68
2022/01/03 04:15:08;;;;;;;2.87;0.70;;;9.80;99.90;;;10.14;97.67;100684.91;4972944;28;20615;-67
2022/01/03 04:17:35;;;;;;;2.67;0.77;;;9.80;99.90;;;10.19;96.89;100695.03;4986528;28;21119;-67
2022/01/03 04:20:05;;;;;;;1.57;0.90;;;9.90;99.90;;;10.26;97.70;100693.69;4993446;28;20625;-68
2022/01/03 04:22:32;;;;;;;2.20;0.80;;;9.90;99.90;;;10.30;97.66;100689.91;4964917;28;20658;-67
2022/01/03 04:24:59;;;;;;;3.97;0.93;;;10.00;99.90;;;10.30;97.94;100690.75;4958277;28;21195;-67
2022/01/03 04:27:26;;;;;;;2.00;0.80;;;10.00;99.90;;;10.28;98.27;100705.69;4955401;28;20667;-67
2022/01/03 04:29:53;;;;;;;1.60;0.63;;;10.00;99.90;;;10.30;98.57;100711.63;4966611;28;20646;-67
2022/01/03 04:32:22;;;;;;;0.70;0.70;;;10.00;99.90;;;10.32;99.09;100711.50;4934703;28;20673;-67
2022/01/03 04:34:49;;;;;;;4.13;0.80;;;10.00;99.90;;;10.34;98.75;100707.00;4940695;28;20653;-66
2022/01/03 04:37:16;;;;;;;1.20;0.70;;;10.00;99.90;;;10.37;99.15;100723.28;4968603;28;20670;-67
2022/01/03 04:39:43;;;;;;;1.40;0.53;;;10.00;99.90;;;10.47;99.07;100734.75;4957958;28;20615;-68
2022/01/03 04:42:10;;;;;;;1.80;0.60;;;10.10;99.90;;;10.54;98.56;100737.78;4944005;29;20659;-68
2022/01/03 04:44:37;;;;;;;0.70;0.70;;;10.20;99.90;;;10.63;97.54;100724.91;4953514;28;20636;-66
2022/01/03 04:47:04;;;;;;;0.67;0.50;;;10.30;99.90;;;10.68;96.82;100717.59;4965967;28;20635;-67
2022/01/03 04:49:31;;;;;;;1.03;0.70;;;10.40;99.90;;;10.70;96.66;100710.50;4954882;29;20620;-69
2022/01/03 04:51:59;;;;;;;0.93;0.83;;;10.40;99.90;;;10.75;96.61;100724.03;4958584;28;20652;-69
2022/01/03 04:54:26;;;;;;;1.23;1.00;;;10.50;99.90;;;10.78;97.12;100715.16;4956925;28;21077;-67
2022/01/03 04:56:58;;;;;;;2.50;0.60;;;10.50;99.90;;;10.79;96.24;100725.50;4946440;28;20662;-67
2022/01/03 04:59:26;;;;;;;1.17;0.80;;;10.50;99.90;;;10.81;96.58;100733.22;4971351;28;20682;-68
2022/01/03 05:01:53;;;;;;;0.70;0.63;;;10.50;99.90;;;10.77;97.38;100730.00;4975438;28;20670;-68
2022/01/03 05:04:20;;;;;;;3.90;0.90;;;10.50;99.90;;;10.76;96.99;100723.09;4968933;28;20647;-67
2022/01/03 05:06:47;;;;;;;1.03;1.00;;;10.50;99.90;;;10.71;97.71;100726.97;4964559;28;21189;-67
2022/01/03 05:09:14;;;;;;;7.20;0.90;;;10.40;99.90;;;10.71;98.10;100733.00;4969608;28;20643;-68
2022/01/03 05:11:42;;;;;;;1.70;0.60;;;10.40;99.90;;;10.70;99.02;100723.53;4957726;28;21049;-66
2022/01/03 05:14:09;;;;;;;1.07;0.90;;;10.30;99.90;;;10.68;99.40;100722.81;4952973;28;20738;-67
2022/01/03 05:16:36;;;;;;;1.63;1.00;;;10.30;99.90;;;10.65;99.66;100711.72;4956975;28;20694;-69
2022/01/03 05:19:03;;;;;;;2.37;0.80;;;10.30;99.90;;;10.69;100.00;100705.38;4954406;28;20697;-67
2022/01/03 05:21:30;;;;;;;0.53;0.50;;;10.30;99.90;;;10.70;100.00;100699.22;4957057;28;20642;-68
2022/01/03 05:23:58;;;;;;;3.80;0.70;;;10.40;99.90;;;10.71;99.81;100701.69;4973409;28;20619;-67
2022/01/03 05:26:25;;;;;;;2.97;1.20;;;10.40;99.90;;;10.74;99.91;100703.25;4982556;28;20643;-68
2022/01/03 05:28:52;;;;;;;3.87;0.80;;;10.40;99.90;;;10.69;99.48;100698.38;4961281;28;20640;-67
2022/01/03 05:31:19;;;;;;;2.70;0.60;;;10.30;99.90;;;10.61;99.83;100695.47;4951398;29;20664;-66
2022/01/03 05:33:46;;;;;;;0.57;0.57;;;10.20;99.90;;;10.58;99.60;100694.88;4952411;29;20624;-67
2022/01/03 05:36:13;;;;;;;2.87;0.97;;;10.20;99.90;;;10.52;99.39;100690.91;4970105;28;20639;-69
2022/01/03 05:38:40;;;;;;;1.00;0.73;;;10.20;99.90;;;10.47;99.68;100687.81;4973633;28;20750;-69
2022/01/03 05:41:07;;;;;;;1.10;0.70;;;10.10;99.90;;;10.46;98.90;100690.50;4964552;28;21077;-66
2022/01/03 05:43:34;;;;;;;0.70;0.70;;;10.10;99.90;;;10.41;99.22;100693.44;4973979;28;20619;-67
2022/01/03 05:46:01;;;;;;;1.90;0.90;;;10.00;99.90;;;10.35;100.00;100688.63;4955325;28;20874;-67
2022/01/03 05:48:28;;;;;;;1.47;0.80;;;10.00;99.90;;;10.31;100.00;100692.41;4966725;28;20635;-67
2022/01/03 05:50:56;;;;;;;1.03;0.90;;;10.00;99.90;;;10.23;100.00;100691.28;4973251;28;20624;-67
2022/01/03 05:53:22;;;;;;;0.53;0.53;;;9.90;99.90;;;10.21;100.00;100706.19;4958535;28;20654;-69
2022/01/03 05:55:49;;;;;;;1.60;0.60;;;9.80;99.90;;;10.18;100.00;100704.63;4954714;29;20616;-67
2022/01/03 05:58:16;;;;;;;2.00;0.80;;;9.80;99.90;;;10.15;100.00;100717.88;4951915;28;20684;-66
2022/01/03 06:00:45;;;;;;;1.27;0.90;;;9.80;99.90;;;10.11;100.00;100717.25;4962058;28;20723;-67
2022/01/03 06:03:14;;;;;;;1.00;0.80;;;9.70;99.90;;;10.08;100.00;100716.59;4963627;28;20758;-67
2022/01/03 06:06:16;;;;;;;4.43;0.90;;;9.70;99.90;;;10.05;100.00;100714.22;4955214;28;20716;-68
2022/01/03 06:08:28;;;;;;;0.93;0.90;;;9.70;99.90;;;10.01;100.00;100710.97;4952025;28;20642;-67
2022/01/03 06:10:55;;;;;;;1.77;1.40;;;9.70;99.90;;;10.01;100.00;100707.53;4956165;28;21216;-68
2022/01/03 06:13:22;;;;;;;1.13;1.03;;;9.60;99.90;;;10.00;100.00;100713.69;4957528;28;20640;-69
2022/01/03 06:15:49;;;;;;;1.43;1.10;;;9.60;99.90;;;9.96;100.00;100710.47;4963447;28;21247;-68
2022/01/03 06:18:17;;;;;;;1.03;0.93;;;9.60;99.90;;;9.97;100.00;100706.91;4959689;28;20670;-66
2022/01/03 06:20:46;;;;;;;1.13;0.93;;;9.60;99.90;;;9.91;100.00;100704.72;4967653;28;20726;-67
2022/01/03 06:23:16;;;;;;;3.47;1.07;;;9.60;99.90;;;9.93;100.00;100704.59;4968405;28;20667;-66
2022/01/03 06:25:44;;;;;;;4.07;1.17;;;9.60;99.90;;;9.95;100.00;100698.34;4963922;28;21198;-67
2022/01/03 06:28:11;;;;;;;1.63;0.80;;;9.60;99.90;;;9.98;100.00;100699.94;4960159;28;20642;-67
2022/01/03 06:30:41;;;;;;;0.80;0.80;;;9.60;99.90;;;10.00;100.00;100708.47;4991753;28;20625;-67
2022/01/03 06:33:10;;;;;;;1.20;0.90;;;9.70;99.90;;;9.98;100.00;100703.38;4949467;28;20663;-66
2022/01/03 06:35:38;;;;;;;5.50;0.83;;;9.60;99.90;;;10.05;98.60;100691.56;4953253;28;20636;-67
2022/01/03 06:38:05;;;;;;;1.77;0.60;;;9.70;99.90;;;10.06;97.95;100695.84;4935724;29;20695;-66
2022/01/03 06:40:32;;;;;;;0.77;0.77;;;9.70;99.90;;;10.13;97.03;100688.47;4935922;29;21010;-67
2022/01/03 06:42:59;;;;;;;0.50;0.50;;;9.80;99.90;;;10.15;96.12;100702.25;4953920;29;20667;-66
2022/01/03 06:45:26;;;;;;;0.67;0.40;;;9.80;99.90;;;10.26;94.49;100696.28;4951970;28;20639;-67
2022/01/03 06:47:56;;;;;;;7.77;1.33;;;10.00;99.90;;;10.26;94.21;100697.13;4953055;29;20624;-66
2022/01/03 06:50:23;;;;;;;2.07;0.60;;;10.00;99.90;;;10.30;93.78;100697.75;4959946;28;21289;-67
2022/01/03 06:52:50;;;;;;;1.27;1.10;;;9.90;99.90;;;10.28;93.90;100694.41;4990595;23;20701;-65
2022/01/03 06:55:17;;;;;;;1.90;0.70;;;9.90;99.90;;;10.28;93.65;100689.19;4940289;28;21069;-65
2022/01/03 06:57:44;;;;;;;2.73;0.70;;;9.90;99.90;;;10.30;93.28;100690.75;4955399;28;20775;-65
2022/01/03 07:00:12;;;;;;;3.13;0.83;;;10.00;99.90;;;10.32;94.03;100691.47;4955299;28;21392;-65
2022/01/03 07:02:42;;;;;;;2.40;0.73;;;10.00;99.90;;;10.28;93.74;100691.78;4971048;28;20709;-65
2022/01/03 07:05:10;;;;;;;5.90;0.63;;;9.90;99.90;;;10.29;94.09;100694.28;4970915;28;20617;-65
2022/01/03 07:07:38;;;;;;;3.30;0.70;;;10.00;99.90;;;10.31;91.87;100692.41;4970341;28;20635;-65
2022/01/03 07:10:06;;;;;;;1.47;0.90;;;10.00;99.90;;;10.33;92.65;100690.53;4975399;28;20725;-66
2022/01/03 07:12:33;;;;;;;1.03;0.90;;;9.90;99.90;;;10.35;93.08;100687.81;4954264;28;20644;-65
2022/01/03 07:20:12;;;;;;;2.43;1.00;;;10.00;99.90;;;10.38;92.29;100691.03;4971924;28;20649;-65
2022/01/03 07:22:40;;;;;;;4.40;1.00;;;10.00;99.90;;;10.36;92.33;100700.75;4953126;28;20962;-65
2022/01/03 07:25:08;;;;;;;2.53;1.00;;;10.00;99.90;;;10.35;92.40;100687.81;4973380;28;20622;-65
2022/01/03 07:27:37;;;;;;;2.37;0.93;;;10.00;99.90;;;10.34;93.08;100702.63;4945561;29;20636;-65
2022/01/03 07:30:05;;;;;;;6.00;1.00;;;10.00;99.90;;;10.36;92.34;100705.97;4967816;28;20682;-65
2022/01/03 07:32:32;;;;;;;6.70;1.20;;;10.00;99.90;;;10.40;91.70;100694.38;4970617;28;21110;-65
2022/01/03 07:34:59;;;;;;;3.13;1.13;;;10.10;99.90;;;10.43;91.39;100698.56;4953692;28;20626;-65
2022/01/03 07:37:26;;;;;;;7.63;1.30;;;10.10;99.90;;;10.45;91.52;100697.50;4979808;28;20652;-65
2022/01/03 07:39:53;;;;;;;2.43;0.83;;;10.10;99.90;;;10.45;92.61;100694.91;4957712;28;20681;-65
2022/01/03 07:42:20;;;;;;;3.60;1.33;;;10.10;99.90;;;10.47;92.36;100689.56;4965482;28;20654;-66
2022/01/03 07:44:47;;;;;;;1.50;0.80;;;10.10;99.90;;;10.51;91.37;100684.03;4971184;28;20620;-66
2022/01/03 07:47:14;;;;;;;7.57;1.60;;;10.20;99.90;;;10.52;90.73;100680.47;4970881;28;20669;-66
2022/01/03 07:49:41;;;;;;;4.50;1.00;;;10.20;99.90;;;10.59;89.50;100673.88;4970373;28;21214;-66
2022/01/03 07:52:08;;;;;;;1.23;0.80;;;10.30;99.90;;;10.66;89.72;100682.94;4939739;28;20765;-65
2022/01/03 07:54:35;;;;;;;4.83;1.33;;;10.30;99.90;;;10.66;89.79;100688.16;4972588;28;20630;-65
2022/01/03 07:57:03;;;;;;;3.30;0.90;;;10.30;99.90;;;10.71;89.53;100685.22;4969546;28;21232;-65
2022/01/03 07:59:30;;;;;;;5.17;1.77;;;10.40;99.90;;;10.73;88.86;100693.78;4971730;28;20670;-65
2022/01/03 08:01:58;;;;;;;2.53;1.17;;;10.40;99.90;;;10.76;89.07;100688.31;4970039;28;20655;-66
2022/01/03 08:04:26;;;;;;;2.20;1.00;;;10.40;99.90;;;10.82;88.19;100678.28;4970790;28;20619;-65
2022/01/03 08:06:54;;;;;;;4.33;1.00;;;10.50;99.90;;;10.88;88.24;100687.47;4969682;28;21008;-65
2022/01/03 08:09:20;;;;;;;5.27;0.87;;;10.60;99.90;;;10.89;87.82;100681.28;4978814;28;20661;-65
2022/01/03 08:11:47;;;;;;;2.13;1.30;;;10.60;99.90;;;10.91;87.39;100677.63;4976513;28;20687;-65
2022/01/03 08:14:14;;;;;;;5.53;1.20;;;10.60;99.90;;;10.97;87.48;100688.56;4970946;28;20621;-64
2022/01/03 08:16:41;;;;;;;2.77;0.90;;;10.70;99.90;;;11.04;87.35;100692.38;4975564;28;20934;-64
2022/01/03 08:19:08;;;;;;;6.77;0.90;;;10.70;99.90;;;11.08;87.39;100686.81;4971065;28;20678;-65
2022/01/03 08:21:35;;;;;;;2.00;0.70;;;10.80;99.90;;;11.13;86.65;100689.94;4980597;28;20644;-64
2022/01/03 08:24:03;;;;;;;1.60;0.70;;;10.80;99.90;;;11.17;86.84;100694.00;4989107;28;21099;-64
2022/01/03 08:26:31;;;;;;;0.83;0.60;;;10.90;99.90;;;11.20;86.65;100693.75;4970727;28;20621;-65
2022/01/03 08:28:58;;;;;;;0.73;0.73;;;10.90;99.90;;;11.26;85.37;100685.50;4985146;28;20638;-65
2022/01/03 08:31:25;;;;;;;0.53;0.53;;;11.00;99.90;;;11.34;85.98;100683.16;4974575;28;20635;-65
2022/01/03 08:33:53;;;;;;;1.07;0.90;;;11.10;99.90;;;11.39;85.80;100688.84;4957624;28;21038;-65
2022/01/03 08:36:20;;;;;;;5.33;1.07;;;11.10;99.90;;;11.41;86.04;100686.13;4956486;28;21214;-64
2022/01/03 08:38:47;;;;;;;3.03;0.60;;;11.10;99.90;;;11.44;84.93;100678.88;4958028;28;20982;-64
2022/01/03 08:41:14;;;;;;;2.90;0.90;;;11.10;99.90;;;11.42;85.92;100685.16;4976813;28;20634;-64
2022/01/03 08:43:41;;;;;;;2.20;0.70;;;11.10;99.90;;;11.44;85.91;100693.72;4974386;28;20627;-65
2022/01/03 08:46:08;;;;;;;6.30;1.10;;;11.10;99.90;;;11.40;86.27;100680.06;4981508;28;20644;-65
2022/01/03 08:48:35;;;;;;;3.47;0.87;;;11.10;99.90;;;11.39;84.70;100688.84;4976491;28;20638;-65
2022/01/03 08:51:02;;;;;;;11.50;1.73;;;11.10;99.90;;;11.44;85.65;100686.72;4939899;28;20621;-65
2022/01/03 08:53:32;;;;;;;4.97;1.40;;;11.10;99.90;;;11.40;85.24;100674.00;4975100;28;20765;-65
2022/01/03 08:56:00;;;;;;;6.93;1.37;;;11.10;99.90;;;11.43;85.09;100679.84;4973531;28;21224;-65
2022/01/03 08:58:27;;;;;;;1.83;0.93;;;11.10;99.90;;;11.45;84.55;100675.34;4973470;28;20754;-65
2022/01/03 09:00:54;;;;;;;2.00;0.77;;;11.20;99.90;;;11.56;84.49;100685.00;4978933;28;20634;-65
2022/01/03 09:03:22;;;;;;;4.07;1.07;;;11.30;99.90;;;11.60;84.64;100670.75;4974465;28;20639;-67
2022/01/03 09:05:54;;;;;;;2.00;1.00;;;11.30;99.90;;;11.63;84.06;100671.34;4957531;28;20734;-65
2022/01/03 09:08:22;;;;;;;5.07;1.33;;;11.30;99.90;;;11.74;83.75;100674.94;4957098;28;20714;-65
2022/01/03 09:10:50;;;;;;;3.23;1.00;;;11.50;99.90;;;11.74;84.01;100682.78;4981118;28;21010;-66
2022/01/03 09:13:18;;;;;;;4.90;1.30;;;11.40;99.90;;;11.78;84.40;100689.44;4972813;28;21082;-67
2022/01/03 09:15:46;;;;;;;6.80;1.33;;;11.50;99.90;;;11.77;84.52;100686.03;4976725;28;21232;-67
2022/01/03 09:18:15;;;;;;;4.17;1.60;;;11.50;99.90;;;11.83;83.49;100684.72;4992887;28;20614;-66
2022/01/03 09:20:43;;;;;;;0.57;0.43;;;11.50;99.90;;;11.95;83.92;100684.59;4986955;28;20638;-67
2022/01/03 09:23:19;;;;;;;4.03;1.00;;;11.70;99.90;;;11.89;83.10;100692.91;4975706;28;20633;-65
2022/01/03 09:28:51;;;;;;;5.20;1.30;;;11.70;99.90;;;12.02;83.24;100682.34;4976581;28;20645;-65
2022/01/03 09:31:27;;;;;;;2.13;1.27;;;11.70;99.90;;;12.08;83.00;100687.94;4959681;28;21261;-65
2022/01/03 09:33:59;;;;;;;2.70;0.83;;;11.80;99.90;;;12.08;83.46;100685.31;4973376;28;20693;-65
2022/01/03 09:36:28;;;;;;;3.07;1.20;;;11.80;99.90;;;12.05;83.31;100696.00;4973614;28;20662;-65
2022/01/03 09:38:55;;;;;;;1.17;1.07;;;11.70;99.90;;;12.13;82.34;100688.44;4973397;28;20670;-65
2022/01/03 09:41:25;;;;;;;2.30;1.10;;;11.80;99.90;;;12.11;82.55;100697.34;4956612;28;20603;-65
2022/01/03 09:44:11;;;;;;;2.07;1.27;;;11.80;99.90;;;12.07;82.85;100699.38;4974001;28;20650;-65
2022/01/03 09:46:41;;;;;;;4.93;1.20;;;11.70;99.90;;;12.12;82.50;100697.22;4984721;28;20645;-64
2022/01/03 09:49:13;;;;;;;4.77;1.23;;;11.80;99.90;;;12.18;82.44;100688.88;4940692;28;20641;-67
2022/01/03 09:51:43;;;;;;;1.07;1.00;;;11.90;99.90;;;12.22;82.92;100703.38;4973846;28;21099;-65
2022/01/03 09:54:15;;;;;;;5.57;1.73;;;11.90;99.90;;;12.23;82.78;100692.00;4957656;28;20711;-65
2022/01/03 09:56:43;;;;;;;2.70;1.07;;;11.90;99.90;;;12.27;83.19;100696.03;4972841;28;20646;-65
2022/01/03 09:59:10;;;;;;;6.63;1.50;;;12.00;99.90;;;12.30;81.96;100687.13;4955827;28;20661;-67
2022/01/03 10:01:42;;;;;;;3.30;1.13;;;12.00;99.90;;;12.32;82.26;100686.03;4925901;28;20614;-67
2022/01/03 10:04:11;;;;;;;4.77;1.13;;;12.00;99.90;;;12.39;81.93;100694.25;4971697;28;20670;-67
2022/01/03 10:06:40;;;;;;;1.50;1.20;;;12.10;99.90;;;12.44;81.30;100679.00;4974354;28;21190;-65
2022/01/03 10:09:07;;;;;;;8.63;1.00;;;12.10;99.90;;;12.55;80.35;100676.38;4974089;28;21198;-65
2022/01/03 10:11:34;;;;;;;3.93;1.43;;;12.30;99.90;;;12.53;80.31;100672.22;4975346;28;20615;-65
2022/01/03 10:14:00;;;;;;;4.80;1.90;;;12.30;99.90;;;12.55;80.20;100672.91;4973592;28;21004;-68
2022/01/03 10:16:28;;;;;;;4.00;1.40;;;12.30;99.90;;;12.61;79.63;100680.28;4979545;28;20793;-66
2022/01/03 10:19:12;;;;;;;7.93;1.33;;;12.30;99.90;;;12.59;78.25;100667.31;4973426;28;20721;-67
2022/01/03 10:21:46;;;;;;;2.83;1.40;;;12.40;99.90;;;12.63;78.33;100662.69;4973157;28;20638;-67
2022/01/03 10:24:15;;;;;;;7.50;2.07;;;12.40;99.90;;;12.55;78.29;100665.91;4974385;28;20637;-67
2022/01/03 10:26:53;;;;;;;4.47;1.27;;;12.30;99.90;;;12.44;79.43;100665.91;4955695;28;20607;-66
2022/01/03 10:29:22;;;;;;;2.70;1.33;;;12.10;99.90;;;12.40;79.10;100662.72;4955887;28;21301;-66
2022/01/03 10:32:00;;;;;;;6.97;1.33;;;12.10;99.90;;;12.32;78.76;100664.28;4955719;28;20677;-67